sensor_id;sensor_type;location;lat;lon;timestamp;P1;durP1;ratioP1;P2;durP2;ratioP2
78346;SDS011;67803;41.330;69.282;2023-02-23T00:00:31;30.13;;;12.10;;
78346;SDS011;67803;41.330;69.282;2023-02-23T00:03:02;23.92;;;11.20;;
78346;SDS011;67803;41.330;69.282;2023-02-23T00:05:34;26.30;;;10.15;;
78346;SDS011;67803;41.330;69.282;2023-02-23T00:08:05;24.38;;;9.90;;
78346;SDS011;67803;41.330;69.282;2023-02-23T00:10:35;16.88;;;8.75;;
78346;SDS011;67803;41.330;69.282;2023-02-23T00:13:06;19.70;;;10.15;;
78346;SDS011;67803;41.330;69.282;2023-02-23T00:15:36;18.45;;;9.77;;
78346;SDS011;67803;41.330;69.282;2023-02-23T00:18:07;18.38;;;9.48;;
78346;SDS011;67803;41.330;69.282;2023-02-23T00:20:38;23.63;;;15.07;;
78346;SDS011;67803;41.330;69.282;2023-02-23T00:23:13;20.95;;;10.80;;
78346;SDS011;67803;41.330;69.282;2023-02-23T00:25:44;18.20;;;8.63;;
78346;SDS011;67803;41.330;69.282;2023-02-23T00:28:14;14.77;;;8.45;;
78346;SDS011;67803;41.330;69.282;2023-02-23T00:30:45;15.70;;;8.23;;
78346;SDS011;67803;41.330;69.282;2023-02-23T00:33:15;21.90;;;8.80;;
78346;SDS011;67803;41.330;69.282;2023-02-23T00:35:46;16.63;;;8.80;;
78346;SDS011;67803;41.330;69.282;2023-02-23T00:38:16;16.63;;;8.50;;
78346;SDS011;67803;41.330;69.282;2023-02-23T00:40:48;18.27;;;8.15;;
78346;SDS011;67803;41.330;69.282;2023-02-23T00:43:18;16.92;;;8.20;;
78346;SDS011;67803;41.330;69.282;2023-02-23T00:45:55;20.63;;;8.82;;
78346;SDS011;67803;41.330;69.282;2023-02-23T00:48:26;18.25;;;8.32;;
78346;SDS011;67803;41.330;69.282;2023-02-23T00:51:01;15.20;;;8.45;;
78346;SDS011;67803;41.330;69.282;2023-02-23T00:53:31;17.15;;;7.85;;
78346;SDS011;67803;41.330;69.282;2023-02-23T00:56:06;17.33;;;8.60;;
78346;SDS011;67803;41.330;69.282;2023-02-23T00:58:36;18.75;;;8.20;;
78346;SDS011;67803;41.330;69.282;2023-02-23T01:01:10;15.20;;;8.43;;
78346;SDS011;67803;41.330;69.282;2023-02-23T01:03:41;15.55;;;8.88;;
78346;SDS011;67803;41.330;69.282;2023-02-23T01:06:13;15.93;;;7.70;;
78346;SDS011;67803;41.330;69.282;2023-02-23T01:08:47;15.88;;;8.45;;
78346;SDS011;67803;41.330;69.282;2023-02-23T01:11:20;16.40;;;8.45;;
78346;SDS011;67803;41.330;69.282;2023-02-23T01:13:51;18.55;;;9.88;;
78346;SDS011;67803;41.330;69.282;2023-02-23T01:16:23;12.40;;;7.57;;
78346;SDS011;67803;41.330;69.282;2023-02-23T01:18:57;14.95;;;7.82;;
78346;SDS011;67803;41.330;69.282;2023-02-23T01:21:29;13.90;;;8.10;;
78346;SDS011;67803;41.330;69.282;2023-02-23T01:24:00;19.27;;;9.00;;
78346;SDS011;67803;41.330;69.282;2023-02-23T01:26:32;15.70;;;8.15;;
78346;SDS011;67803;41.330;69.282;2023-02-23T01:29:07;11.63;;;7.88;;
78346;SDS011;67803;41.330;69.282;2023-02-23T01:31:38;15.25;;;8.18;;
78346;SDS011;67803;41.330;69.282;2023-02-23T01:34:10;14.65;;;8.32;;
78346;SDS011;67803;41.330;69.282;2023-02-23T01:36:41;17.88;;;8.65;;
78346;SDS011;67803;41.330;69.282;2023-02-23T01:39:13;16.13;;;8.15;;
78346;SDS011;67803;41.330;69.282;2023-02-23T01:41:44;17.00;;;8.48;;
78346;SDS011;67803;41.330;69.282;2023-02-23T01:46:45;16.98;;;8.13;;
78346;SDS011;67803;41.330;69.282;2023-02-23T01:49:20;17.95;;;9.38;;
78346;SDS011;67803;41.330;69.282;2023-02-23T01:52:13;17.42;;;9.18;;
78346;SDS011;67803;41.330;69.282;2023-02-23T01:54:48;18.45;;;9.90;;
78346;SDS011;67803;41.330;69.282;2023-02-23T01:57:21;23.05;;;9.13;;
78346;SDS011;67803;41.330;69.282;2023-02-23T01:59:53;24.13;;;8.98;;
78346;SDS011;67803;41.330;69.282;2023-02-23T02:02:25;17.88;;;9.23;;
78346;SDS011;67803;41.330;69.282;2023-02-23T02:05:03;20.00;;;9.38;;
78346;SDS011;67803;41.330;69.282;2023-02-23T02:07:37;22.75;;;9.50;;
78346;SDS011;67803;41.330;69.282;2023-02-23T02:10:09;19.05;;;9.50;;
78346;SDS011;67803;41.330;69.282;2023-02-23T02:12:43;16.05;;;9.00;;
78346;SDS011;67803;41.330;69.282;2023-02-23T02:15:14;21.30;;;9.43;;
78346;SDS011;67803;41.330;69.282;2023-02-23T02:17:55;24.38;;;11.23;;
78346;SDS011;67803;41.330;69.282;2023-02-23T02:26:01;24.38;;;10.63;;
78346;SDS011;67803;41.330;69.282;2023-02-23T02:36:47;21.43;;;9.03;;
78346;SDS011;67803;41.330;69.282;2023-02-23T02:47:33;26.55;;;11.20;;
78346;SDS011;67803;41.330;69.282;2023-02-23T02:52:38;26.08;;;11.73;;
78346;SDS011;67803;41.330;69.282;2023-02-23T02:55:12;20.25;;;11.20;;
78346;SDS011;67803;41.330;69.282;2023-02-23T02:57:43;22.70;;;10.88;;
78346;SDS011;67803;41.330;69.282;2023-02-23T03:00:16;32.05;;;11.32;;
78346;SDS011;67803;41.330;69.282;2023-02-23T03:03:08;20.98;;;11.15;;
78346;SDS011;67803;41.330;69.282;2023-02-23T03:05:59;34.17;;;11.88;;
78346;SDS011;67803;41.330;69.282;2023-02-23T03:08:58;30.35;;;11.60;;
78346;SDS011;67803;41.330;69.282;2023-02-23T03:11:57;29.08;;;11.57;;
78346;SDS011;67803;41.330;69.282;2023-02-23T03:14:54;28.65;;;10.43;;
78346;SDS011;67803;41.330;69.282;2023-02-23T03:17:44;28.48;;;10.75;;
78346;SDS011;67803;41.330;69.282;2023-02-23T03:20:46;29.98;;;11.02;;
78346;SDS011;67803;41.330;69.282;2023-02-23T03:26:28;28.27;;;11.35;;
78346;SDS011;67803;41.330;69.282;2023-02-23T03:29:36;32.05;;;12.48;;
78346;SDS011;67803;41.330;69.282;2023-02-23T03:32:32;23.92;;;10.73;;
78346;SDS011;67803;41.330;69.282;2023-02-23T03:35:27;26.17;;;11.82;;
78346;SDS011;67803;41.330;69.282;2023-02-23T03:38:19;35.50;;;12.88;;
78346;SDS011;67803;41.330;69.282;2023-02-23T03:41:10;32.92;;;11.57;;
78346;SDS011;67803;41.330;69.282;2023-02-23T03:44:08;34.50;;;11.25;;
78346;SDS011;67803;41.330;69.282;2023-02-23T03:49:49;33.92;;;11.32;;
78346;SDS011;67803;41.330;69.282;2023-02-23T03:52:42;34.22;;;11.30;;
78346;SDS011;67803;41.330;69.282;2023-02-23T03:55:33;33.47;;;12.23;;
78346;SDS011;67803;41.330;69.282;2023-02-23T03:58:26;41.28;;;12.82;;
78346;SDS011;67803;41.330;69.282;2023-02-23T04:01:17;34.10;;;11.90;;
78346;SDS011;67803;41.330;69.282;2023-02-23T04:04:07;40.78;;;12.13;;
78346;SDS011;67803;41.330;69.282;2023-02-23T04:06:58;35.78;;;11.32;;
78346;SDS011;67803;41.330;69.282;2023-02-23T04:09:49;31.33;;;11.60;;
78346;SDS011;67803;41.330;69.282;2023-02-23T04:15:35;35.97;;;12.57;;
78346;SDS011;67803;41.330;69.282;2023-02-23T04:18:06;41.67;;;11.82;;
78346;SDS011;67803;41.330;69.282;2023-02-23T04:20:37;38.85;;;11.43;;
78346;SDS011;67803;41.330;69.282;2023-02-23T04:23:07;34.72;;;10.73;;
78346;SDS011;67803;41.330;69.282;2023-02-23T04:25:38;31.30;;;11.00;;
78346;SDS011;67803;41.330;69.282;2023-02-23T04:28:08;41.55;;;11.43;;
78346;SDS011;67803;41.330;69.282;2023-02-23T04:30:38;27.65;;;10.13;;
78346;SDS011;67803;41.330;69.282;2023-02-23T04:33:09;31.52;;;11.32;;
78346;SDS011;67803;41.330;69.282;2023-02-23T04:35:40;35.85;;;10.50;;
78346;SDS011;67803;41.330;69.282;2023-02-23T04:38:11;42.03;;;10.25;;
78346;SDS011;67803;41.330;69.282;2023-02-23T04:40:41;34.03;;;10.75;;
78346;SDS011;67803;41.330;69.282;2023-02-23T04:43:12;35.80;;;11.15;;
78346;SDS011;67803;41.330;69.282;2023-02-23T04:45:43;34.40;;;11.23;;
78346;SDS011;67803;41.330;69.282;2023-02-23T04:48:13;31.80;;;11.55;;
78346;SDS011;67803;41.330;69.282;2023-02-23T04:50:44;27.45;;;10.60;;
78346;SDS011;67803;41.330;69.282;2023-02-23T04:53:14;33.08;;;11.80;;
78346;SDS011;67803;41.330;69.282;2023-02-23T04:55:44;30.15;;;10.15;;
78346;SDS011;67803;41.330;69.282;2023-02-23T04:58:15;36.55;;;10.60;;
78346;SDS011;67803;41.330;69.282;2023-02-23T05:00:45;33.00;;;10.40;;
78346;SDS011;67803;41.330;69.282;2023-02-23T05:03:16;30.67;;;10.05;;
78346;SDS011;67803;41.330;69.282;2023-02-23T05:05:46;39.15;;;11.88;;
78346;SDS011;67803;41.330;69.282;2023-02-23T05:08:17;33.92;;;10.95;;
78346;SDS011;67803;41.330;69.282;2023-02-23T05:10:47;37.75;;;10.65;;
78346;SDS011;67803;41.330;69.282;2023-02-23T05:13:18;32.90;;;12.45;;
78346;SDS011;67803;41.330;69.282;2023-02-23T05:15:49;37.35;;;12.05;;
78346;SDS011;67803;41.330;69.282;2023-02-23T05:18:19;32.22;;;11.65;;
78346;SDS011;67803;41.330;69.282;2023-02-23T05:20:50;35.80;;;12.18;;
78346;SDS011;67803;41.330;69.282;2023-02-23T05:23:20;31.25;;;10.13;;
78346;SDS011;67803;41.330;69.282;2023-02-23T05:25:51;36.10;;;11.65;;
78346;SDS011;67803;41.330;69.282;2023-02-23T05:28:21;35.88;;;11.88;;
78346;SDS011;67803;41.330;69.282;2023-02-23T05:30:52;32.65;;;10.80;;
78346;SDS011;67803;41.330;69.282;2023-02-23T05:33:22;28.45;;;10.35;;
78346;SDS011;67803;41.330;69.282;2023-02-23T05:35:52;26.58;;;10.48;;
78346;SDS011;67803;41.330;69.282;2023-02-23T05:38:23;28.20;;;9.27;;
78346;SDS011;67803;41.330;69.282;2023-02-23T05:40:53;33.17;;;9.63;;
78346;SDS011;67803;41.330;69.282;2023-02-23T05:43:24;27.92;;;10.00;;
78346;SDS011;67803;41.330;69.282;2023-02-23T05:45:54;25.17;;;9.40;;
78346;SDS011;67803;41.330;69.282;2023-02-23T05:48:26;25.40;;;8.48;;
78346;SDS011;67803;41.330;69.282;2023-02-23T05:50:59;32.22;;;9.23;;
78346;SDS011;67803;41.330;69.282;2023-02-23T05:53:30;29.80;;;8.95;;
78346;SDS011;67803;41.330;69.282;2023-02-23T05:56:01;23.70;;;8.25;;
78346;SDS011;67803;41.330;69.282;2023-02-23T05:58:32;27.50;;;8.95;;
78346;SDS011;67803;41.330;69.282;2023-02-23T06:01:02;25.83;;;8.20;;
78346;SDS011;67803;41.330;69.282;2023-02-23T06:03:33;25.92;;;7.25;;
78346;SDS011;67803;41.330;69.282;2023-02-23T06:06:04;20.05;;;6.90;;
78346;SDS011;67803;41.330;69.282;2023-02-23T06:08:35;23.88;;;6.93;;
78346;SDS011;67803;41.330;69.282;2023-02-23T06:11:06;17.50;;;5.70;;
78346;SDS011;67803;41.330;69.282;2023-02-23T06:13:36;20.45;;;5.93;;
78346;SDS011;67803;41.330;69.282;2023-02-23T06:16:07;21.23;;;6.18;;
78346;SDS011;67803;41.330;69.282;2023-02-23T06:18:38;19.92;;;5.47;;
78346;SDS011;67803;41.330;69.282;2023-02-23T06:21:08;16.95;;;5.60;;
78346;SDS011;67803;41.330;69.282;2023-02-23T06:23:39;18.25;;;4.53;;
78346;SDS011;67803;41.330;69.282;2023-02-23T06:26:09;25.63;;;5.43;;
78346;SDS011;67803;41.330;69.282;2023-02-23T06:28:40;19.20;;;4.10;;
78346;SDS011;67803;41.330;69.282;2023-02-23T06:31:11;18.10;;;4.53;;
78346;SDS011;67803;41.330;69.282;2023-02-23T06:33:41;14.15;;;4.40;;
78346;SDS011;67803;41.330;69.282;2023-02-23T06:36:11;21.58;;;4.80;;
78346;SDS011;67803;41.330;69.282;2023-02-23T06:38:42;19.58;;;4.00;;
78346;SDS011;67803;41.330;69.282;2023-02-23T06:41:14;20.17;;;4.20;;
78346;SDS011;67803;41.330;69.282;2023-02-23T06:43:44;18.50;;;4.15;;
78346;SDS011;67803;41.330;69.282;2023-02-23T06:46:15;18.23;;;3.80;;
78346;SDS011;67803;41.330;69.282;2023-02-23T06:48:45;18.77;;;4.00;;
78346;SDS011;67803;41.330;69.282;2023-02-23T06:51:16;17.00;;;3.60;;
78346;SDS011;67803;41.330;69.282;2023-02-23T06:53:46;12.57;;;3.45;;
78346;SDS011;67803;41.330;69.282;2023-02-23T06:56:16;17.17;;;3.92;;
78346;SDS011;67803;41.330;69.282;2023-02-23T06:58:47;12.50;;;3.33;;
78346;SDS011;67803;41.330;69.282;2023-02-23T07:01:17;13.18;;;3.72;;
78346;SDS011;67803;41.330;69.282;2023-02-23T07:03:48;17.02;;;3.50;;
78346;SDS011;67803;41.330;69.282;2023-02-23T07:06:19;16.63;;;3.03;;
78346;SDS011;67803;41.330;69.282;2023-02-23T07:08:49;17.27;;;3.65;;
78346;SDS011;67803;41.330;69.282;2023-02-23T07:11:19;11.63;;;3.90;;
78346;SDS011;67803;41.330;69.282;2023-02-23T07:13:50;13.63;;;3.22;;
78346;SDS011;67803;41.330;69.282;2023-02-23T07:16:20;13.05;;;3.53;;
78346;SDS011;67803;41.330;69.282;2023-02-23T07:18:51;15.90;;;3.33;;
78346;SDS011;67803;41.330;69.282;2023-02-23T07:21:21;15.88;;;3.42;;
78346;SDS011;67803;41.330;69.282;2023-02-23T07:23:52;18.38;;;3.38;;
78346;SDS011;67803;41.330;69.282;2023-02-23T07:26:22;13.80;;;3.00;;
78346;SDS011;67803;41.330;69.282;2023-02-23T07:28:53;10.45;;;2.60;;
78346;SDS011;67803;41.330;69.282;2023-02-23T07:31:23;8.80;;;2.78;;
78346;SDS011;67803;41.330;69.282;2023-02-23T07:33:55;13.60;;;3.13;;
78346;SDS011;67803;41.330;69.282;2023-02-23T07:36:25;10.15;;;2.92;;
78346;SDS011;67803;41.330;69.282;2023-02-23T07:38:56;13.15;;;3.60;;
78346;SDS011;67803;41.330;69.282;2023-02-23T07:41:26;10.32;;;2.83;;
78346;SDS011;67803;41.330;69.282;2023-02-23T07:43:57;11.77;;;2.58;;
78346;SDS011;67803;41.330;69.282;2023-02-23T07:46:28;11.40;;;2.83;;
78346;SDS011;67803;41.330;69.282;2023-02-23T07:48:58;6.82;;;2.03;;
78346;SDS011;67803;41.330;69.282;2023-02-23T07:51:28;6.95;;;1.85;;
78346;SDS011;67803;41.330;69.282;2023-02-23T07:54:02;7.78;;;2.13;;
78346;SDS011;67803;41.330;69.282;2023-02-23T07:56:34;6.53;;;1.98;;
78346;SDS011;67803;41.330;69.282;2023-02-23T07:59:04;8.20;;;1.67;;
78346;SDS011;67803;41.330;69.282;2023-02-23T08:01:35;6.53;;;1.65;;
78346;SDS011;67803;41.330;69.282;2023-02-23T08:04:05;3.95;;;1.77;;
78346;SDS011;67803;41.330;69.282;2023-02-23T08:06:36;8.95;;;1.80;;
78346;SDS011;67803;41.330;69.282;2023-02-23T08:09:06;8.88;;;2.08;;
78346;SDS011;67803;41.330;69.282;2023-02-23T08:11:37;8.38;;;1.75;;
78346;SDS011;67803;41.330;69.282;2023-02-23T08:14:07;11.63;;;3.10;;
78346;SDS011;67803;41.330;69.282;2023-02-23T08:16:39;14.57;;;4.07;;
78346;SDS011;67803;41.330;69.282;2023-02-23T08:19:10;9.27;;;4.25;;
78346;SDS011;67803;41.330;69.282;2023-02-23T08:21:40;14.98;;;4.53;;
78346;SDS011;67803;41.330;69.282;2023-02-23T08:24:12;14.45;;;3.97;;
78346;SDS011;67803;41.330;69.282;2023-02-23T08:26:43;10.27;;;4.00;;
78346;SDS011;67803;41.330;69.282;2023-02-23T08:29:13;13.23;;;3.92;;
78346;SDS011;67803;41.330;69.282;2023-02-23T08:31:44;11.13;;;3.40;;
78346;SDS011;67803;41.330;69.282;2023-02-23T08:34:14;16.45;;;3.95;;
78346;SDS011;67803;41.330;69.282;2023-02-23T08:36:45;11.15;;;3.75;;
78346;SDS011;67803;41.330;69.282;2023-02-23T08:39:15;12.27;;;3.25;;
78346;SDS011;67803;41.330;69.282;2023-02-23T08:41:46;12.15;;;3.53;;
78346;SDS011;67803;41.330;69.282;2023-02-23T08:44:16;8.10;;;3.30;;
78346;SDS011;67803;41.330;69.282;2023-02-23T08:46:47;7.53;;;3.50;;
78346;SDS011;67803;41.330;69.282;2023-02-23T08:49:17;9.18;;;3.35;;
78346;SDS011;67803;41.330;69.282;2023-02-23T08:51:47;15.30;;;3.88;;
78346;SDS011;67803;41.330;69.282;2023-02-23T08:54:18;11.68;;;3.00;;
78346;SDS011;67803;41.330;69.282;2023-02-23T08:56:49;7.97;;;3.03;;
78346;SDS011;67803;41.330;69.282;2023-02-23T08:59:19;10.65;;;2.95;;
78346;SDS011;67803;41.330;69.282;2023-02-23T09:01:50;7.90;;;3.05;;
78346;SDS011;67803;41.330;69.282;2023-02-23T09:04:21;9.25;;;2.80;;
78346;SDS011;67803;41.330;69.282;2023-02-23T09:06:51;8.90;;;2.90;;
78346;SDS011;67803;41.330;69.282;2023-02-23T09:09:21;11.02;;;2.97;;
78346;SDS011;67803;41.330;69.282;2023-02-23T09:11:52;13.45;;;3.20;;
78346;SDS011;67803;41.330;69.282;2023-02-23T09:14:22;13.48;;;3.28;;
78346;SDS011;67803;41.330;69.282;2023-02-23T09:16:53;8.52;;;2.90;;
78346;SDS011;67803;41.330;69.282;2023-02-23T09:19:23;10.95;;;3.03;;
78346;SDS011;67803;41.330;69.282;2023-02-23T09:21:56;7.05;;;2.17;;
78346;SDS011;67803;41.330;69.282;2023-02-23T09:24:27;8.25;;;2.60;;
78346;SDS011;67803;41.330;69.282;2023-02-23T09:26:57;6.57;;;2.30;;
78346;SDS011;67803;41.330;69.282;2023-02-23T09:29:27;8.38;;;2.13;;
78346;SDS011;67803;41.330;69.282;2023-02-23T09:31:58;5.82;;;2.17;;
78346;SDS011;67803;41.330;69.282;2023-02-23T09:34:28;31.55;;;3.58;;
78346;SDS011;67803;41.330;69.282;2023-02-23T09:37:01;10.05;;;2.35;;
78346;SDS011;67803;41.330;69.282;2023-02-23T09:39:32;9.32;;;2.60;;
78346;SDS011;67803;41.330;69.282;2023-02-23T09:52:27;7.30;;;2.10;;
78346;SDS011;67803;41.330;69.282;2023-02-23T09:55:01;10.52;;;2.45;;
78346;SDS011;67803;41.330;69.282;2023-02-23T09:57:38;7.35;;;2.35;;
78346;SDS011;67803;41.330;69.282;2023-02-23T10:00:11;6.32;;;2.25;;
78346;SDS011;67803;41.330;69.282;2023-02-23T10:02:54;5.30;;;2.03;;
78346;SDS011;67803;41.330;69.282;2023-02-23T10:05:27;9.32;;;2.55;;
78346;SDS011;67803;41.330;69.282;2023-02-23T10:23:26;8.30;;;2.10;;
78346;SDS011;67803;41.330;69.282;2023-02-23T10:25:59;5.90;;;2.17;;
78346;SDS011;67803;41.330;69.282;2023-02-23T10:28:32;5.07;;;1.73;;
78346;SDS011;67803;41.330;69.282;2023-02-23T10:31:06;7.22;;;2.08;;
78346;SDS011;67803;41.330;69.282;2023-02-23T10:33:45;7.13;;;2.08;;
78346;SDS011;67803;41.330;69.282;2023-02-23T10:36:17;7.07;;;2.53;;
78346;SDS011;67803;41.330;69.282;2023-02-23T10:38:51;27.65;;;3.47;;
78346;SDS011;67803;41.330;69.282;2023-02-23T10:41:21;10.23;;;3.13;;
78346;SDS011;67803;41.330;69.282;2023-02-23T10:43:51;15.20;;;2.92;;
78346;SDS011;67803;41.330;69.282;2023-02-23T10:46:23;6.57;;;2.15;;
78346;SDS011;67803;41.330;69.282;2023-02-23T10:48:54;12.73;;;3.63;;
78346;SDS011;67803;41.330;69.282;2023-02-23T10:51:27;8.45;;;2.15;;
78346;SDS011;67803;41.330;69.282;2023-02-23T10:53:59;9.48;;;2.83;;
78346;SDS011;67803;41.330;69.282;2023-02-23T10:56:53;8.20;;;2.28;;
78346;SDS011;67803;41.330;69.282;2023-02-23T10:59:23;6.38;;;2.53;;
78346;SDS011;67803;41.330;69.282;2023-02-23T11:01:54;8.80;;;2.50;;
78346;SDS011;67803;41.330;69.282;2023-02-23T11:04:25;8.40;;;2.38;;
78346;SDS011;67803;41.330;69.282;2023-02-23T11:07:16;5.35;;;2.38;;
78346;SDS011;67803;41.330;69.282;2023-02-23T11:09:47;9.10;;;2.45;;
78346;SDS011;67803;41.330;69.282;2023-02-23T11:12:22;6.95;;;2.53;;
78346;SDS011;67803;41.330;69.282;2023-02-23T11:14:54;7.30;;;2.03;;
78346;SDS011;67803;41.330;69.282;2023-02-23T11:20:00;10.25;;;2.70;;
78346;SDS011;67803;41.330;69.282;2023-02-23T11:22:33;16.25;;;4.03;;
78346;SDS011;67803;41.330;69.282;2023-02-23T11:25:12;13.82;;;2.53;;
78346;SDS011;67803;41.330;69.282;2023-02-23T11:27:47;7.50;;;2.20;;
78346;SDS011;67803;41.330;69.282;2023-02-23T11:30:20;23.13;;;3.17;;
78346;SDS011;67803;41.330;69.282;2023-02-23T11:32:54;34.47;;;4.90;;
78346;SDS011;67803;41.330;69.282;2023-02-23T11:35:26;10.23;;;2.42;;
78346;SDS011;67803;41.330;69.282;2023-02-23T11:37:57;12.93;;;3.35;;
78346;SDS011;67803;41.330;69.282;2023-02-23T11:40:29;12.45;;;2.85;;
78346;SDS011;67803;41.330;69.282;2023-02-23T11:45:43;8.55;;;2.50;;
78346;SDS011;67803;41.330;69.282;2023-02-23T11:50:51;8.60;;;2.30;;
78346;SDS011;67803;41.330;69.282;2023-02-23T11:55:58;10.85;;;2.60;;
78346;SDS011;67803;41.330;69.282;2023-02-23T12:01:09;7.25;;;2.35;;
78346;SDS011;67803;41.330;69.282;2023-02-23T12:03:53;6.22;;;2.47;;
78346;SDS011;67803;41.330;69.282;2023-02-23T12:06:29;7.18;;;2.40;;
78346;SDS011;67803;41.330;69.282;2023-02-23T12:11:33;10.43;;;2.38;;
78346;SDS011;67803;41.330;69.282;2023-02-23T12:14:07;7.95;;;2.30;;
78346;SDS011;67803;41.330;69.282;2023-02-23T12:16:42;10.32;;;2.35;;
78346;SDS011;67803;41.330;69.282;2023-02-23T12:19:21;12.15;;;2.80;;
78346;SDS011;67803;41.330;69.282;2023-02-23T12:21:59;14.35;;;2.85;;
78346;SDS011;67803;41.330;69.282;2023-02-23T12:24:37;11.07;;;3.30;;
78346;SDS011;67803;41.330;69.282;2023-02-23T12:27:56;12.68;;;3.47;;
78346;SDS011;67803;41.330;69.282;2023-02-23T12:30:19;13.43;;;3.40;;
78346;SDS011;67803;41.330;69.282;2023-02-23T12:35:24;14.60;;;3.75;;
78346;SDS011;67803;41.330;69.282;2023-02-23T12:38:18;9.95;;;3.10;;
78346;SDS011;67803;41.330;69.282;2023-02-23T12:40:58;11.23;;;3.33;;
78346;SDS011;67803;41.330;69.282;2023-02-23T12:43:45;18.38;;;3.53;;
78346;SDS011;67803;41.330;69.282;2023-02-23T12:46:21;13.95;;;3.85;;
78346;SDS011;67803;41.330;69.282;2023-02-23T12:51:40;18.90;;;6.25;;
78346;SDS011;67803;41.330;69.282;2023-02-23T12:54:12;21.63;;;6.00;;
78346;SDS011;67803;41.330;69.282;2023-02-23T12:59:19;15.48;;;5.80;;
78346;SDS011;67803;41.330;69.282;2023-02-23T13:01:53;15.23;;;6.15;;
78346;SDS011;67803;41.330;69.282;2023-02-23T13:17:49;17.63;;;6.68;;
78346;SDS011;67803;41.330;69.282;2023-02-23T13:22:59;18.63;;;6.28;;
78346;SDS011;67803;41.330;69.282;2023-02-23T13:28:13;22.95;;;7.00;;
78346;SDS011;67803;41.330;69.282;2023-02-23T13:30:45;23.20;;;6.95;;
78346;SDS011;67803;41.330;69.282;2023-02-23T13:33:25;24.98;;;7.85;;
78346;SDS011;67803;41.330;69.282;2023-02-23T13:35:56;22.60;;;8.43;;
78346;SDS011;67803;41.330;69.282;2023-02-23T13:38:32;22.45;;;6.95;;
78346;SDS011;67803;41.330;69.282;2023-02-23T13:41:14;26.15;;;7.43;;
78346;SDS011;67803;41.330;69.282;2023-02-23T13:44:06;21.38;;;7.32;;
78346;SDS011;67803;41.330;69.282;2023-02-23T13:49:19;22.70;;;7.65;;
78346;SDS011;67803;41.330;69.282;2023-02-23T13:51:55;22.67;;;8.13;;
78346;SDS011;67803;41.330;69.282;2023-02-23T13:54:30;25.90;;;7.60;;
78346;SDS011;67803;41.330;69.282;2023-02-23T13:57:11;20.27;;;7.57;;
78346;SDS011;67803;41.330;69.282;2023-02-23T13:59:43;24.80;;;7.65;;
78346;SDS011;67803;41.330;69.282;2023-02-23T14:05:05;22.25;;;7.82;;
78346;SDS011;67803;41.330;69.282;2023-02-23T14:07:37;32.20;;;8.85;;
78346;SDS011;67803;41.330;69.282;2023-02-23T14:10:15;31.92;;;8.82;;
78346;SDS011;67803;41.330;69.282;2023-02-23T14:25:51;22.17;;;7.10;;
78346;SDS011;67803;41.330;69.282;2023-02-23T14:28:31;18.25;;;6.70;;
78346;SDS011;67803;41.330;69.282;2023-02-23T14:38:57;18.77;;;6.68;;
78346;SDS011;67803;41.330;69.282;2023-02-23T14:46:49;24.65;;;7.85;;
78346;SDS011;67803;41.330;69.282;2023-02-23T14:49:27;21.17;;;8.27;;
78346;SDS011;67803;41.330;69.282;2023-02-23T14:52:07;23.73;;;9.32;;
78346;SDS011;67803;41.330;69.282;2023-02-23T14:54:39;19.00;;;8.13;;
78346;SDS011;67803;41.330;69.282;2023-02-23T14:59:56;20.08;;;7.45;;
78346;SDS011;67803;41.330;69.282;2023-02-23T15:02:28;27.10;;;8.60;;
78346;SDS011;67803;41.330;69.282;2023-02-23T15:04:59;35.13;;;9.13;;
78346;SDS011;67803;41.330;69.282;2023-02-23T15:07:43;38.35;;;9.85;;
78346;SDS011;67803;41.330;69.282;2023-02-23T15:10:17;31.63;;;9.13;;
78346;SDS011;67803;41.330;69.282;2023-02-23T15:12:49;20.52;;;8.07;;
78346;SDS011;67803;41.330;69.282;2023-02-23T15:15:24;27.20;;;8.60;;
78346;SDS011;67803;41.330;69.282;2023-02-23T15:17:57;25.15;;;7.90;;
78346;SDS011;67803;41.330;69.282;2023-02-23T15:20:31;40.08;;;9.00;;
78346;SDS011;67803;41.330;69.282;2023-02-23T15:23:03;37.70;;;9.65;;
78346;SDS011;67803;41.330;69.282;2023-02-23T15:25:35;26.55;;;8.48;;
78346;SDS011;67803;41.330;69.282;2023-02-23T15:28:20;32.10;;;9.70;;
78346;SDS011;67803;41.330;69.282;2023-02-23T15:30:53;21.02;;;8.10;;
78346;SDS011;67803;41.330;69.282;2023-02-23T15:33:24;16.50;;;7.55;;
78346;SDS011;67803;41.330;69.282;2023-02-23T15:36:07;15.38;;;7.53;;
78346;SDS011;67803;41.330;69.282;2023-02-23T15:38:40;27.85;;;9.02;;
78346;SDS011;67803;41.330;69.282;2023-02-23T15:41:14;17.83;;;7.65;;
78346;SDS011;67803;41.330;69.282;2023-02-23T15:43:46;18.30;;;7.30;;
78346;SDS011;67803;41.330;69.282;2023-02-23T15:46:21;14.32;;;6.47;;
78346;SDS011;67803;41.330;69.282;2023-02-23T15:48:54;15.52;;;5.47;;
78346;SDS011;67803;41.330;69.282;2023-02-23T15:54:11;24.67;;;8.73;;
78346;SDS011;67803;41.330;69.282;2023-02-23T15:56:47;20.77;;;7.40;;
78346;SDS011;67803;41.330;69.282;2023-02-23T15:59:25;19.15;;;6.30;;
78346;SDS011;67803;41.330;69.282;2023-02-23T16:01:57;16.13;;;7.28;;
78346;SDS011;67803;41.330;69.282;2023-02-23T16:04:31;16.58;;;7.07;;
78346;SDS011;67803;41.330;69.282;2023-02-23T16:07:21;18.20;;;7.15;;
78346;SDS011;67803;41.330;69.282;2023-02-23T16:10:16;17.10;;;6.50;;
78346;SDS011;67803;41.330;69.282;2023-02-23T16:12:48;17.85;;;7.05;;
78346;SDS011;67803;41.330;69.282;2023-02-23T16:15:31;22.45;;;6.50;;
78346;SDS011;67803;41.330;69.282;2023-02-23T16:18:03;21.25;;;7.70;;
78346;SDS011;67803;41.330;69.282;2023-02-23T16:20:38;21.75;;;8.70;;
78346;SDS011;67803;41.330;69.282;2023-02-23T16:23:12;19.55;;;7.70;;
78346;SDS011;67803;41.330;69.282;2023-02-23T16:25:44;21.63;;;7.65;;
78346;SDS011;67803;41.330;69.282;2023-02-23T16:28:16;18.48;;;7.28;;
78346;SDS011;67803;41.330;69.282;2023-02-23T16:31:01;24.90;;;7.50;;
78346;SDS011;67803;41.330;69.282;2023-02-23T16:38:53;19.17;;;7.95;;
78346;SDS011;67803;41.330;69.282;2023-02-23T16:41:30;18.73;;;6.85;;
78346;SDS011;67803;41.330;69.282;2023-02-23T16:44:01;21.45;;;7.93;;
78346;SDS011;67803;41.330;69.282;2023-02-23T16:46:53;21.25;;;7.13;;
78346;SDS011;67803;41.330;69.282;2023-02-23T16:49:23;17.15;;;8.00;;
78346;SDS011;67803;41.330;69.282;2023-02-23T16:51:54;22.67;;;8.45;;
78346;SDS011;67803;41.330;69.282;2023-02-23T16:54:25;21.27;;;7.43;;
78346;SDS011;67803;41.330;69.282;2023-02-23T16:56:55;16.80;;;6.25;;
78346;SDS011;67803;41.330;69.282;2023-02-23T16:59:26;16.25;;;6.40;;
78346;SDS011;67803;41.330;69.282;2023-02-23T17:01:58;17.50;;;6.43;;
78346;SDS011;67803;41.330;69.282;2023-02-23T17:04:28;16.23;;;6.72;;
78346;SDS011;67803;41.330;69.282;2023-02-23T17:06:59;22.52;;;7.22;;
78346;SDS011;67803;41.330;69.282;2023-02-23T17:09:29;23.02;;;8.60;;
78346;SDS011;67803;41.330;69.282;2023-02-23T17:12:00;16.67;;;6.25;;
78346;SDS011;67803;41.330;69.282;2023-02-23T17:14:30;15.90;;;5.90;;
78346;SDS011;67803;41.330;69.282;2023-02-23T17:17:02;17.27;;;5.70;;
78346;SDS011;67803;41.330;69.282;2023-02-23T17:19:32;18.92;;;4.97;;
78346;SDS011;67803;41.330;69.282;2023-02-23T17:22:03;18.17;;;6.00;;
78346;SDS011;67803;41.330;69.282;2023-02-23T17:24:33;17.20;;;5.03;;
78346;SDS011;67803;41.330;69.282;2023-02-23T17:27:04;14.23;;;5.10;;